createdAt,value
2019-03-22T00:00:34.987Z,0.00
2019-03-22T00:01:35.033Z,0.00
2019-03-22T00:02:35.097Z,0.00
2019-03-22T00:03:35.153Z,0.00
2019-03-22T00:04:35.241Z,0.00
2019-03-22T00:05:35.285Z,0.00
2019-03-22T00:06:35.367Z,0.00
2019-03-22T00:07:35.401Z,0.00
2019-03-22T00:08:35.462Z,0.00
2019-03-22T00:09:35.530Z,0.00
2019-03-22T00:10:35.595Z,0.00
2019-03-22T00:11:35.646Z,0.00
2019-03-22T00:12:35.706Z,0.00
2019-03-22T00:13:35.771Z,0.00
2019-03-22T00:14:36.984Z,0.00
2019-03-22T00:15:35.901Z,0.00
2019-03-22T00:16:35.958Z,0.00
2019-03-22T00:17:36.016Z,0.00
2019-03-22T00:18:36.079Z,0.00
2019-03-22T00:19:36.235Z,0.00
2019-03-22T00:20:36.199Z,0.00
2019-03-22T00:21:36.262Z,0.00
2019-03-22T00:22:36.323Z,0.00
2019-03-22T00:23:36.382Z,0.00
2019-03-22T00:24:36.451Z,0.00
2019-03-22T00:25:36.511Z,0.00
2019-03-22T00:26:36.567Z,0.00
2019-03-22T00:27:36.642Z,0.00
2019-03-22T00:28:36.721Z,0.00
2019-03-22T00:29:36.759Z,0.00
2019-03-22T00:30:36.819Z,0.00
2019-03-22T00:31:36.875Z,0.00
2019-03-22T00:32:36.938Z,0.00
2019-03-22T00:33:36.995Z,0.00
2019-03-22T00:34:37.064Z,0.00
2019-03-22T00:35:37.128Z,0.00
2019-03-22T00:36:37.180Z,0.00
2019-03-22T00:37:37.240Z,0.00
2019-03-22T00:38:37.306Z,0.00
2019-03-22T00:39:37.374Z,0.00
2019-03-22T00:40:37.431Z,0.00
2019-03-22T00:41:37.488Z,0.00
2019-03-22T00:42:37.548Z,0.00
2019-03-22T00:43:37.608Z,0.00
2019-03-22T00:44:37.676Z,0.00
2019-03-22T00:45:37.736Z,0.00
2019-03-22T00:46:37.792Z,0.00
2019-03-22T00:47:37.852Z,0.00
2019-03-22T00:48:37.917Z,0.00
2019-03-22T00:49:37.984Z,0.00
2019-03-22T00:50:38.044Z,0.00
2019-03-22T00:51:38.100Z,0.00
2019-03-22T00:52:38.160Z,0.00
2019-03-22T00:53:38.223Z,0.00
2019-03-22T00:54:38.280Z,0.00
2019-03-22T00:55:38.360Z,0.00
2019-03-22T00:56:38.404Z,0.00
2019-03-22T00:57:38.469Z,0.00
2019-03-22T00:58:38.528Z,0.00
2019-03-22T00:59:38.589Z,0.00
2019-03-22T01:00:38.657Z,0.00
2019-03-22T01:01:38.717Z,0.00
2019-03-22T01:02:38.773Z,0.00
2019-03-22T01:03:38.833Z,0.00
2019-03-22T01:04:38.893Z,0.00
2019-03-22T01:05:38.964Z,0.00
2019-03-22T01:06:39.022Z,0.00
2019-03-22T01:07:39.079Z,0.00
2019-03-22T01:08:39.141Z,0.00
2019-03-22T01:09:39.196Z,0.00
2019-03-22T01:10:39.361Z,0.00
2019-03-22T01:11:39.321Z,0.00
2019-03-22T01:12:39.381Z,0.00
2019-03-22T01:13:39.445Z,0.00
2019-03-22T01:14:39.509Z,0.00
2019-03-22T01:15:39.573Z,0.00
2019-03-22T01:16:39.634Z,0.00
2019-03-22T01:17:39.690Z,0.00
2019-03-22T01:18:39.750Z,0.00
2019-03-22T01:19:39.810Z,0.00
2019-03-22T01:20:39.878Z,0.00
2019-03-22T01:21:39.939Z,0.00
2019-03-22T01:22:39.994Z,0.00
2019-03-22T01:23:40.054Z,0.00
2019-03-22T01:24:40.118Z,0.00
2019-03-22T01:25:40.262Z,0.00
2019-03-22T01:26:40.237Z,0.00
2019-03-22T01:27:41.429Z,0.00
2019-03-22T01:28:40.358Z,0.00
2019-03-22T01:29:40.418Z,0.00
2019-03-22T01:30:40.490Z,0.00
2019-03-22T01:31:40.550Z,0.00
2019-03-22T01:32:40.602Z,0.00
2019-03-22T01:33:40.662Z,0.00
2019-03-22T01:34:40.726Z,0.00
2019-03-22T01:35:40.794Z,0.00
2019-03-22T01:36:40.855Z,0.00
2019-03-22T01:37:40.955Z,0.00
2019-03-22T01:38:40.966Z,0.00
2019-03-22T01:39:41.033Z,0.00
2019-03-22T01:40:41.275Z,0.00
2019-03-22T01:41:41.155Z,0.00
2019-03-22T01:42:41.211Z,0.00
2019-03-22T01:43:41.274Z,0.00
2019-03-22T01:44:41.343Z,0.00
2019-03-22T01:45:41.403Z,0.00
2019-03-22T01:46:41.467Z,0.00
2019-03-22T01:47:41.515Z,0.00
2019-03-22T01:48:41.575Z,0.00
2019-03-22T01:49:41.639Z,0.00
2019-03-22T01:50:41.707Z,0.00
2019-03-22T01:51:41.767Z,0.00
2019-03-22T01:52:41.819Z,0.00
2019-03-22T01:53:41.883Z,0.00
2019-03-22T01:54:41.943Z,0.00
2019-03-22T01:55:42.015Z,0.00
2019-03-22T01:56:42.071Z,0.00
2019-03-22T01:57:52.405Z,0.00
2019-03-22T01:58:42.187Z,0.00
2019-03-22T01:59:42.248Z,0.00
2019-03-22T02:00:42.307Z,0.00
2019-03-22T02:01:42.408Z,0.00
2019-03-22T02:02:42.495Z,0.00
2019-03-22T02:03:42.492Z,0.00
2019-03-22T02:04:42.551Z,0.00
2019-03-22T02:05:42.616Z,0.00
2019-03-22T02:06:42.683Z,0.00
2019-03-22T02:07:42.754Z,0.00
2019-03-22T02:08:42.792Z,0.00
2019-03-22T02:09:42.856Z,0.00
2019-03-22T02:10:42.916Z,0.00
2019-03-22T02:11:42.988Z,0.00
2019-03-22T02:12:43.047Z,0.00
2019-03-22T02:13:43.099Z,0.00
2019-03-22T02:14:43.160Z,0.00
2019-03-22T02:15:43.225Z,0.00
2019-03-22T02:16:43.292Z,0.00
2019-03-22T02:17:43.341Z,0.00
2019-03-22T02:18:43.404Z,0.00
2019-03-22T02:19:43.461Z,0.00
2019-03-22T02:20:43.520Z,0.00
2019-03-22T02:21:43.589Z,0.00
2019-03-22T02:22:43.655Z,0.00
2019-03-22T02:23:43.705Z,0.00
2019-03-22T02:24:43.765Z,0.00
2019-03-22T02:25:43.825Z,0.00
2019-03-22T02:26:43.895Z,0.00
2019-03-22T02:27:43.963Z,0.00
2019-03-22T02:28:44.009Z,0.00
2019-03-22T02:29:44.524Z,0.00
2019-03-22T02:30:44.145Z,0.00
2019-03-22T02:31:44.217Z,0.00
2019-03-22T02:32:44.257Z,0.00
2019-03-22T02:33:44.309Z,0.00
2019-03-22T02:34:44.374Z,0.00
2019-03-22T02:35:44.438Z,0.00
2019-03-22T02:36:44.498Z,0.00
2019-03-22T02:37:44.569Z,0.00
2019-03-22T02:38:44.614Z,0.00
2019-03-22T02:39:44.991Z,0.00
2019-03-22T02:40:44.868Z,0.00
2019-03-22T02:41:44.807Z,0.00
2019-03-22T02:42:44.867Z,0.00
2019-03-22T02:43:44.919Z,0.00
2019-03-22T02:44:44.982Z,0.00
2019-03-22T02:45:45.038Z,0.00
2019-03-22T02:46:45.191Z,0.00
2019-03-22T02:47:45.163Z,0.00
2019-03-22T02:48:45.219Z,0.00
2019-03-22T02:49:45.283Z,0.00
2019-03-22T02:50:45.342Z,0.00
2019-03-22T02:51:45.411Z,0.00
2019-03-22T02:52:45.477Z,0.00
2019-03-22T02:53:45.522Z,0.00
2019-03-22T02:54:45.584Z,0.00
2019-03-22T02:55:45.678Z,0.00
2019-03-22T02:56:45.718Z,0.00
2019-03-22T02:57:45.838Z,0.00
2019-03-22T02:58:45.827Z,0.00
2019-03-22T02:59:45.892Z,0.00
2019-03-22T03:00:45.952Z,0.00
2019-03-22T03:01:46.015Z,0.00
2019-03-22T03:02:46.082Z,0.00
2019-03-22T03:03:46.133Z,0.00
2019-03-22T03:04:46.194Z,0.00
2019-03-22T03:05:46.256Z,0.00
2019-03-22T03:06:46.311Z,0.00
2019-03-22T03:07:46.464Z,0.00
2019-03-22T03:08:46.431Z,0.00
2019-03-22T03:09:46.493Z,0.00
2019-03-22T03:10:46.556Z,0.00
2019-03-22T03:11:46.616Z,0.00
2019-03-22T03:12:46.690Z,0.00
2019-03-22T03:13:46.744Z,0.00
2019-03-22T03:14:46.795Z,0.00
2019-03-22T03:15:46.856Z,0.00
2019-03-22T03:16:46.917Z,0.00
2019-03-22T03:17:46.987Z,0.00
2019-03-22T03:18:47.045Z,0.00
2019-03-22T03:19:47.101Z,0.00
2019-03-22T03:20:47.160Z,0.00
2019-03-22T03:21:47.223Z,0.00
2019-03-22T03:22:47.286Z,0.00
2019-03-22T03:23:47.368Z,0.00
2019-03-22T03:24:47.409Z,0.00
2019-03-22T03:25:47.460Z,0.00
2019-03-22T03:26:47.520Z,0.00
2019-03-22T03:27:47.586Z,0.00
2019-03-22T03:28:47.661Z,0.00
2019-03-22T03:29:47.714Z,0.00
2019-03-22T03:30:47.786Z,0.00
2019-03-22T03:31:47.825Z,0.00
2019-03-22T03:32:47.885Z,0.00
2019-03-22T03:33:47.953Z,0.00
2019-03-22T03:34:48.021Z,0.00
2019-03-22T03:35:48.066Z,0.00
2019-03-22T03:36:48.126Z,0.00
2019-03-22T03:37:48.186Z,0.00
2019-03-22T03:38:48.344Z,0.00
2019-03-22T03:39:48.314Z,0.00
2019-03-22T03:40:48.369Z,0.00
2019-03-22T03:41:48.430Z,0.00
2019-03-22T03:42:48.492Z,0.00
2019-03-22T03:43:48.559Z,0.00
2019-03-22T03:44:48.618Z,0.00
2019-03-22T03:45:48.670Z,0.00
2019-03-22T03:46:48.825Z,0.00
2019-03-22T03:47:48.790Z,0.00
2019-03-22T03:48:48.858Z,0.00
2019-03-22T03:49:48.918Z,0.00
2019-03-22T03:50:48.983Z,0.00
2019-03-22T03:51:49.035Z,0.00
2019-03-22T03:52:49.095Z,0.00
2019-03-22T03:53:49.174Z,0.00
2019-03-22T03:54:49.214Z,0.00
2019-03-22T03:55:49.275Z,0.00
2019-03-22T03:56:49.339Z,0.00
2019-03-22T03:57:49.394Z,0.00
2019-03-22T03:58:52.762Z,0.00
2019-03-22T03:59:49.522Z,0.00
2019-03-22T04:00:49.583Z,0.00
2019-03-22T04:01:49.633Z,0.00
2019-03-22T04:02:49.708Z,0.00
2019-03-22T04:03:49.774Z,0.00
2019-03-22T04:04:49.825Z,0.00
2019-03-22T04:05:49.882Z,0.00
2019-03-22T04:06:49.945Z,0.00
2019-03-22T04:07:49.999Z,0.00
2019-03-22T04:08:50.072Z,0.00
2019-03-22T04:09:50.128Z,0.00
2019-03-22T04:10:50.179Z,0.00
2019-03-22T04:11:50.238Z,0.00
2019-03-22T04:12:50.313Z,0.00
2019-03-22T04:13:50.366Z,0.00
2019-03-22T04:14:50.427Z,0.00
2019-03-22T04:15:50.479Z,0.00
2019-03-22T04:16:50.539Z,0.00
2019-03-22T04:17:50.599Z,0.00
2019-03-22T04:18:50.668Z,0.00
2019-03-22T04:19:50.882Z,0.00
2019-03-22T04:20:50.789Z,0.00
2019-03-22T04:21:50.869Z,0.00
2019-03-22T04:22:50.904Z,0.00
2019-03-22T04:23:50.974Z,0.00
2019-03-22T04:24:51.028Z,0.00
2019-03-22T04:25:51.084Z,0.00
2019-03-22T04:26:51.143Z,0.00
2019-03-22T04:27:51.207Z,0.00
2019-03-22T04:29:06.172Z,0.00
2019-03-22T04:29:51.339Z,0.00
2019-03-22T04:30:51.385Z,0.00
2019-03-22T04:31:51.443Z,0.00
2019-03-22T04:32:51.505Z,0.00
2019-03-22T04:33:51.571Z,0.00
2019-03-22T04:34:51.633Z,0.00
2019-03-22T04:35:51.691Z,0.00
2019-03-22T04:36:51.752Z,0.00
2019-03-22T04:37:51.805Z,0.00
2019-03-22T04:38:51.867Z,0.00
2019-03-22T04:39:51.935Z,0.00
2019-03-22T04:40:51.992Z,0.00
2019-03-22T04:41:52.044Z,0.00
2019-03-22T04:42:52.109Z,0.00
2019-03-22T04:43:52.173Z,0.00
2019-03-22T04:44:52.244Z,0.00
2019-03-22T04:45:52.288Z,0.00
2019-03-22T04:46:52.349Z,0.00
2019-03-22T04:47:52.414Z,0.00
2019-03-22T04:48:52.470Z,0.00
2019-03-22T04:49:52.536Z,0.00
2019-03-22T04:50:52.592Z,0.00
2019-03-22T04:51:52.648Z,0.00
2019-03-22T04:52:52.709Z,0.00
2019-03-22T04:53:52.840Z,0.00
2019-03-22T04:54:52.837Z,0.00
2019-03-22T04:55:52.896Z,0.00
2019-03-22T04:56:52.949Z,0.00
2019-03-22T04:57:53.012Z,0.00
2019-03-22T04:58:53.069Z,0.00
2019-03-22T04:59:53.152Z,0.00
2019-03-22T05:00:53.202Z,0.00
2019-03-22T05:01:53.251Z,0.00
2019-03-22T05:02:53.309Z,0.00
2019-03-22T05:03:53.369Z,0.00
2019-03-22T05:04:53.437Z,0.00
2019-03-22T05:05:53.501Z,0.00
2019-03-22T05:06:53.549Z,0.00
2019-03-22T05:07:53.610Z,0.00
2019-03-22T05:08:53.673Z,0.00
2019-03-22T05:09:53.740Z,0.00
2019-03-22T05:10:53.799Z,0.00
2019-03-22T05:11:53.850Z,0.00
2019-03-22T05:12:53.910Z,0.00
2019-03-22T05:13:53.969Z,0.00
2019-03-22T05:14:54.038Z,0.00
2019-03-22T05:15:54.097Z,0.00
2019-03-22T05:16:54.150Z,0.00
2019-03-22T05:17:54.210Z,0.00
2019-03-22T05:18:54.270Z,0.00
2019-03-22T05:19:54.338Z,0.00
2019-03-22T05:20:54.400Z,0.00
2019-03-22T05:21:54.453Z,0.00
2019-03-22T05:22:54.513Z,0.00
2019-03-22T05:23:54.572Z,0.00
2019-03-22T05:24:54.638Z,0.00
2019-03-22T05:25:54.699Z,0.00
2019-03-22T05:26:54.750Z,0.00
2019-03-22T05:27:54.811Z,0.00
2019-03-22T05:28:54.871Z,0.00
2019-03-22T05:29:54.939Z,0.00
2019-03-22T05:30:55.003Z,5.63
2019-03-22T05:31:55.051Z,5.63
2019-03-22T05:32:55.110Z,5.63
2019-03-22T05:33:55.171Z,5.63
2019-03-22T05:34:55.235Z,5.63
2019-03-22T05:35:55.320Z,5.63
2019-03-22T05:36:55.351Z,5.63
2019-03-22T05:37:55.411Z,11.25
2019-03-22T05:38:55.474Z,11.25
2019-03-22T05:39:55.539Z,11.25
2019-03-22T05:40:55.602Z,11.25
2019-03-22T05:41:55.659Z,11.25
2019-03-22T05:42:55.710Z,16.88
2019-03-22T05:43:55.775Z,16.88
2019-03-22T05:44:55.835Z,16.88
2019-03-22T05:45:55.899Z,16.88
2019-03-22T05:46:55.961Z,16.88
2019-03-22T05:47:56.015Z,22.50
2019-03-22T05:48:56.072Z,22.50
2019-03-22T05:49:56.139Z,22.50
2019-03-22T05:50:56.307Z,28.13
2019-03-22T05:51:56.259Z,28.13
2019-03-22T05:52:56.323Z,28.13
2019-03-22T05:53:56.376Z,33.75
2019-03-22T05:54:56.436Z,33.75
2019-03-22T05:55:56.504Z,33.75
2019-03-22T05:56:56.566Z,39.38
2019-03-22T05:57:56.616Z,39.38
2019-03-22T05:58:56.680Z,39.38
2019-03-22T05:59:56.736Z,45.00
2019-03-22T06:00:56.804Z,45.00
2019-03-22T06:01:56.868Z,50.63
2019-03-22T06:02:56.916Z,50.63
2019-03-22T06:03:56.978Z,50.63
2019-03-22T06:04:57.036Z,50.63
2019-03-22T06:05:57.208Z,50.63
2019-03-22T06:06:57.161Z,56.25
2019-03-22T06:07:57.220Z,56.25
2019-03-22T06:08:57.280Z,56.25
2019-03-22T06:09:57.344Z,61.88
2019-03-22T06:10:57.411Z,61.88
2019-03-22T06:11:57.469Z,61.88
2019-03-22T06:12:57.520Z,67.50
2019-03-22T06:13:57.581Z,67.50
2019-03-22T06:14:57.641Z,67.50
2019-03-22T06:15:57.712Z,67.50
2019-03-22T06:16:57.768Z,73.13
2019-03-22T06:17:57.823Z,73.13
2019-03-22T06:18:57.885Z,73.13
2019-03-22T06:19:57.949Z,78.75
2019-03-22T06:20:58.013Z,78.75
2019-03-22T06:21:58.074Z,78.75
2019-03-22T06:22:58.131Z,84.38
2019-03-22T06:23:58.190Z,84.38
2019-03-22T06:24:58.248Z,84.38
2019-03-22T06:25:58.320Z,90.00
2019-03-22T06:26:58.377Z,90.00
2019-03-22T06:27:58.429Z,90.00
2019-03-22T06:28:58.494Z,95.63
2019-03-22T06:29:58.549Z,95.63
2019-03-22T06:30:58.621Z,95.63
2019-03-22T06:31:58.677Z,101.25
2019-03-22T06:32:58.733Z,101.25
2019-03-22T06:33:58.793Z,106.88
2019-03-22T06:34:58.854Z,106.88
2019-03-22T06:35:58.923Z,112.50
2019-03-22T06:36:58.986Z,118.13
2019-03-22T06:37:59.042Z,118.13
2019-03-22T06:38:59.102Z,118.13
2019-03-22T06:39:59.163Z,118.13
2019-03-22T06:40:59.274Z,123.75
2019-03-22T06:41:59.282Z,123.75
2019-03-22T06:42:59.342Z,123.75
2019-03-22T06:43:59.406Z,123.75
2019-03-22T06:44:59.471Z,129.38
2019-03-22T06:45:59.534Z,129.38
2019-03-22T06:46:59.594Z,129.38
2019-03-22T06:47:59.650Z,129.38
2019-03-22T06:48:59.710Z,129.38
2019-03-22T06:49:59.775Z,129.38
2019-03-22T06:50:59.839Z,129.38
2019-03-22T06:51:59.902Z,135.00
2019-03-22T06:52:59.958Z,135.00
2019-03-22T06:54:00.020Z,135.00
2019-03-22T06:55:00.084Z,135.00
2019-03-22T06:56:00.245Z,135.00
2019-03-22T06:57:00.207Z,140.63
2019-03-22T06:58:00.263Z,140.63
2019-03-22T06:59:00.332Z,140.63
2019-03-22T07:00:06.273Z,140.63
2019-03-22T07:01:00.455Z,140.63
2019-03-22T07:02:00.519Z,140.63
2019-03-22T07:03:00.571Z,140.63
2019-03-22T07:04:00.640Z,140.63
2019-03-22T07:05:00.697Z,140.63
2019-03-22T07:06:00.765Z,140.63
2019-03-22T07:07:00.829Z,140.63
2019-03-22T07:08:00.884Z,140.63
2019-03-22T07:09:00.947Z,146.25
2019-03-22T07:10:01.003Z,146.25
2019-03-22T07:11:01.071Z,146.25
2019-03-22T07:12:01.136Z,146.25
2019-03-22T07:13:01.191Z,140.63
2019-03-22T07:14:01.252Z,140.63
2019-03-22T07:15:01.320Z,140.63
2019-03-22T07:16:01.384Z,146.25
2019-03-22T07:17:01.445Z,151.88
2019-03-22T07:18:01.501Z,151.88
2019-03-22T07:19:01.560Z,157.50
2019-03-22T07:20:01.624Z,157.50
2019-03-22T07:21:01.698Z,163.13
2019-03-22T07:22:01.756Z,174.38
2019-03-22T07:23:01.808Z,180.00
2019-03-22T07:24:01.876Z,185.63
2019-03-22T07:25:01.937Z,185.63
2019-03-22T07:26:02.004Z,191.25
2019-03-22T07:27:02.068Z,191.25
2019-03-22T07:28:02.125Z,191.25
2019-03-22T07:29:02.181Z,196.88
2019-03-22T07:30:02.244Z,202.50
2019-03-22T07:31:02.320Z,208.13
2019-03-22T07:32:02.393Z,208.13
2019-03-22T07:33:02.433Z,213.75
2019-03-22T07:34:02.494Z,213.75
2019-03-22T07:35:02.558Z,225.00
2019-03-22T07:36:02.686Z,225.00
2019-03-22T07:37:02.688Z,225.00
2019-03-22T07:38:02.753Z,230.63
2019-03-22T07:39:02.804Z,247.50
2019-03-22T07:40:02.870Z,275.63
2019-03-22T07:41:02.929Z,466.88
2019-03-22T07:42:03.001Z,776.25
2019-03-22T07:43:03.061Z,798.75
2019-03-22T07:44:03.117Z,866.25
2019-03-22T07:45:03.181Z,703.13
2019-03-22T07:46:03.245Z,731.25
2019-03-22T07:47:03.317Z,742.50
2019-03-22T07:48:03.375Z,613.13
2019-03-22T07:49:03.441Z,658.13
2019-03-22T07:50:03.501Z,663.75
2019-03-22T07:51:03.570Z,759.38
2019-03-22T07:52:03.637Z,810.00
2019-03-22T07:53:03.698Z,815.63
2019-03-22T07:54:03.893Z,843.75
2019-03-22T07:55:03.823Z,838.13
2019-03-22T07:56:03.890Z,888.75
2019-03-22T07:57:03.966Z,843.75
2019-03-22T07:58:04.026Z,798.75
2019-03-22T07:59:04.086Z,585.00
2019-03-22T08:00:04.150Z,770.63
2019-03-22T08:01:04.218Z,804.38
2019-03-22T08:02:04.302Z,736.88
2019-03-22T08:03:04.355Z,770.63
2019-03-22T08:04:04.418Z,905.63
2019-03-22T08:05:04.493Z,871.88
2019-03-22T08:06:04.550Z,900.00
2019-03-22T08:07:04.624Z,832.50
2019-03-22T08:08:04.707Z,939.38
2019-03-22T08:09:04.755Z,995.63
2019-03-22T08:10:04.849Z,1029.38
2019-03-22T08:11:04.888Z,1192.50
2019-03-22T08:12:04.962Z,1226.25
2019-03-22T08:13:05.031Z,1186.88
2019-03-22T08:14:05.096Z,1170.00
2019-03-22T08:15:05.160Z,1248.75
2019-03-22T08:16:05.325Z,1153.13
2019-03-22T08:17:05.315Z,1136.25
2019-03-22T08:18:05.361Z,1231.88
2019-03-22T08:19:05.445Z,1057.50
2019-03-22T08:20:05.499Z,1153.13
2019-03-22T08:21:05.563Z,1147.50
2019-03-22T08:22:05.639Z,1051.88
2019-03-22T08:23:05.712Z,950.63
2019-03-22T08:24:05.772Z,697.50
2019-03-22T08:25:05.841Z,675.00
2019-03-22T08:26:05.936Z,540.00
2019-03-22T08:27:05.984Z,478.13
2019-03-22T08:28:06.056Z,472.50
2019-03-22T08:29:06.116Z,410.63
2019-03-22T08:30:06.183Z,450.00
2019-03-22T08:31:06.283Z,438.75
2019-03-22T08:32:06.325Z,405.00
2019-03-22T08:33:06.483Z,382.50
2019-03-22T08:34:06.469Z,371.25
2019-03-22T08:35:06.541Z,388.13
2019-03-22T08:36:06.657Z,360.00
2019-03-22T08:37:06.669Z,354.38
2019-03-22T08:38:06.746Z,360.00
2019-03-22T08:39:06.834Z,382.50
2019-03-22T08:40:06.876Z,393.75
2019-03-22T08:41:06.961Z,371.25
2019-03-22T08:42:07.008Z,376.88
2019-03-22T08:43:07.120Z,371.25
2019-03-22T08:44:07.161Z,388.13
2019-03-22T08:45:07.339Z,388.13
2019-03-22T08:46:07.285Z,393.75
2019-03-22T08:47:07.364Z,371.25
2019-03-22T08:48:07.450Z,331.88
2019-03-22T08:49:09.560Z,393.75
2019-03-22T08:50:07.583Z,421.88
2019-03-22T08:51:07.633Z,421.88
2019-03-22T08:52:07.740Z,450.00
2019-03-22T08:53:07.929Z,427.50
2019-03-22T08:54:07.848Z,416.25
2019-03-22T08:55:07.917Z,399.38
2019-03-22T08:56:07.983Z,416.25
2019-03-22T08:57:08.054Z,416.25
2019-03-22T08:58:08.146Z,421.88
2019-03-22T08:59:08.215Z,416.25
2019-03-22T09:00:08.305Z,416.25
2019-03-22T09:01:08.329Z,416.25
2019-03-22T09:02:08.559Z,410.63
2019-03-22T09:03:08.478Z,399.38
2019-03-22T09:04:08.551Z,388.13
2019-03-22T09:05:08.629Z,399.38
2019-03-22T09:06:08.680Z,343.13
2019-03-22T09:07:08.750Z,337.50
2019-03-22T09:08:08.843Z,354.38
2019-03-22T09:09:08.948Z,354.38
2019-03-22T09:10:08.989Z,371.25
2019-03-22T09:11:09.054Z,354.38
2019-03-22T09:12:09.127Z,382.50
2019-03-22T09:13:09.348Z,388.13
2019-03-22T09:14:09.242Z,405.00
2019-03-22T09:15:09.335Z,399.38
2019-03-22T09:16:09.383Z,399.38
2019-03-22T09:17:09.484Z,405.00
2019-03-22T09:18:09.530Z,354.38
2019-03-22T09:19:09.634Z,405.00
2019-03-22T09:20:09.666Z,393.75
2019-03-22T09:21:09.734Z,393.75
2019-03-22T09:22:09.807Z,388.13
2019-03-22T09:23:09.887Z,416.25
2019-03-22T09:24:10.010Z,416.25
2019-03-22T09:25:10.015Z,410.63
2019-03-22T09:26:10.121Z,405.00
2019-03-22T09:27:10.160Z,405.00
2019-03-22T09:28:10.554Z,393.75
2019-03-22T09:29:10.311Z,393.75
2019-03-22T09:30:11.066Z,393.75
2019-03-22T09:31:10.997Z,376.88
2019-03-22T09:32:10.603Z,376.88
2019-03-22T09:33:13.331Z,365.63
2019-03-22T09:34:11.279Z,343.13
2019-03-22T09:35:10.723Z,348.75
2019-03-22T09:36:10.799Z,354.38
2019-03-22T09:37:10.863Z,331.88
2019-03-22T09:38:13.215Z,337.50
2019-03-22T09:39:11.016Z,343.13
2019-03-22T09:40:11.081Z,331.88
2019-03-22T09:41:11.201Z,337.50
2019-03-22T09:42:11.221Z,354.38
2019-03-22T09:43:11.308Z,337.50
2019-03-22T09:44:11.363Z,326.25
2019-03-22T09:45:14.176Z,315.00
2019-03-22T09:46:11.499Z,315.00
2019-03-22T09:47:11.572Z,309.38
2019-03-22T09:48:11.668Z,303.75
2019-03-22T09:49:11.720Z,309.38
2019-03-22T09:50:11.826Z,326.25
2019-03-22T09:51:11.852Z,326.25
2019-03-22T09:52:11.952Z,337.50
2019-03-22T09:53:12.005Z,331.88
2019-03-22T09:54:12.141Z,337.50
2019-03-22T09:55:14.193Z,337.50
2019-03-22T09:56:12.262Z,331.88
2019-03-22T09:57:12.273Z,331.88
2019-03-22T09:58:12.432Z,331.88
2019-03-22T09:59:12.516Z,337.50
2019-03-22T10:00:12.514Z,337.50
2019-03-22T10:01:23.200Z,331.88
2019-03-22T10:02:12.624Z,337.50
2019-03-22T10:03:12.742Z,331.88
2019-03-22T10:04:12.794Z,326.25
2019-03-22T10:05:12.846Z,315.00
2019-03-22T10:06:12.904Z,315.00
2019-03-22T10:07:13.081Z,315.00
2019-03-22T10:08:13.082Z,320.63
2019-03-22T10:09:13.186Z,315.00
2019-03-22T10:10:13.187Z,315.00
2019-03-22T10:11:13.304Z,315.00
2019-03-22T10:12:13.337Z,298.13
2019-03-22T10:13:13.483Z,275.63
2019-03-22T10:14:13.495Z,258.75
2019-03-22T10:15:13.529Z,258.75
2019-03-22T10:16:13.604Z,247.50
2019-03-22T10:17:13.692Z,270.00
2019-03-22T10:18:13.776Z,264.38
2019-03-22T10:19:13.813Z,264.38
2019-03-22T10:20:13.880Z,264.38
2019-03-22T10:21:22.377Z,275.63
2019-03-22T10:22:14.061Z,264.38
2019-03-22T10:23:14.128Z,258.75
2019-03-22T10:24:14.157Z,247.50
2019-03-22T10:25:14.229Z,241.88
2019-03-22T10:26:14.339Z,241.88
2019-03-22T10:27:14.430Z,247.50
2019-03-22T10:28:14.579Z,241.88
2019-03-22T10:29:14.522Z,230.63
2019-03-22T10:30:14.566Z,219.38
2019-03-22T10:31:14.697Z,219.38
2019-03-22T10:32:14.705Z,219.38
2019-03-22T10:33:22.759Z,219.38
2019-03-22T10:34:14.912Z,208.13
2019-03-22T10:35:25.313Z,196.88
2019-03-22T10:36:14.986Z,202.50
2019-03-22T10:37:15.046Z,202.50
2019-03-22T10:38:16.553Z,208.13
2019-03-22T10:39:15.186Z,213.75
2019-03-22T10:40:15.264Z,208.13
2019-03-22T10:41:15.330Z,202.50
2019-03-22T10:42:15.431Z,219.38
2019-03-22T10:43:15.470Z,208.13
2019-03-22T10:44:15.606Z,208.13
2019-03-22T10:45:15.596Z,213.75
2019-03-22T10:46:15.696Z,230.63
2019-03-22T10:47:18.045Z,241.88
2019-03-22T10:48:15.840Z,241.88
2019-03-22T10:49:15.875Z,241.88
2019-03-22T10:50:15.949Z,258.75
2019-03-22T10:51:16.090Z,258.75
2019-03-22T10:52:16.144Z,253.13
2019-03-22T10:53:16.205Z,247.50
2019-03-22T10:54:16.207Z,247.50
2019-03-22T10:55:29.325Z,247.50
2019-03-22T10:56:16.343Z,241.88
2019-03-22T10:57:16.411Z,236.25
2019-03-22T10:58:21.241Z,236.25
2019-03-22T10:59:16.556Z,247.50
2019-03-22T11:00:16.620Z,247.50
2019-03-22T11:01:16.689Z,258.75
2019-03-22T11:02:16.747Z,258.75
2019-03-22T11:03:16.827Z,264.38
2019-03-22T11:04:16.892Z,264.38
2019-03-22T11:05:16.958Z,270.00
2019-03-22T11:06:25.824Z,270.00
2019-03-22T11:07:17.099Z,270.00
2019-03-22T11:08:17.183Z,275.63
2019-03-22T11:09:17.224Z,275.63
2019-03-22T11:10:17.294Z,270.00
2019-03-22T11:11:17.363Z,275.63
2019-03-22T11:12:17.431Z,275.63
2019-03-22T11:13:17.509Z,270.00
2019-03-22T11:14:17.572Z,264.38
2019-03-22T11:15:17.628Z,264.38
2019-03-22T11:16:17.698Z,270.00
2019-03-22T11:17:17.766Z,270.00
2019-03-22T11:18:17.840Z,270.00
2019-03-22T11:19:17.904Z,270.00
2019-03-22T11:20:17.969Z,264.38
2019-03-22T11:21:18.033Z,270.00
2019-03-22T11:22:18.100Z,270.00
2019-03-22T11:23:18.276Z,270.00
2019-03-22T11:24:18.237Z,270.00
2019-03-22T11:25:18.304Z,270.00
2019-03-22T11:26:18.372Z,270.00
2019-03-22T11:27:18.445Z,270.00
2019-03-22T11:28:18.517Z,270.00
2019-03-22T11:29:18.581Z,270.00
2019-03-22T11:30:18.653Z,270.00
2019-03-22T11:31:23.713Z,264.38
2019-03-22T11:32:18.782Z,264.38
2019-03-22T11:33:18.883Z,270.00
2019-03-22T11:34:18.929Z,264.38
2019-03-22T11:35:18.981Z,258.75
2019-03-22T11:36:19.050Z,258.75
2019-03-22T11:37:19.118Z,258.75
2019-03-22T11:38:19.282Z,253.13
2019-03-22T11:39:19.321Z,253.13
2019-03-22T11:40:19.321Z,253.13
2019-03-22T11:41:19.390Z,253.13
2019-03-22T11:42:19.461Z,253.13
2019-03-22T11:43:19.529Z,247.50
2019-03-22T11:44:19.597Z,247.50
2019-03-22T11:45:19.657Z,247.50
2019-03-22T11:46:19.727Z,247.50
2019-03-22T11:47:19.797Z,247.50
2019-03-22T11:48:19.926Z,247.50
2019-03-22T11:49:19.941Z,236.25
2019-03-22T11:50:20.005Z,247.50
2019-03-22T11:51:20.070Z,247.50
2019-03-22T11:52:20.136Z,247.50
2019-03-22T11:53:20.344Z,247.50
2019-03-22T11:54:20.270Z,247.50
2019-03-22T11:55:20.338Z,247.50
2019-03-22T11:56:20.406Z,241.88
2019-03-22T11:57:20.474Z,191.25
2019-03-22T11:58:20.550Z,202.50
2019-03-22T11:59:20.619Z,230.63
2019-03-22T12:00:20.682Z,236.25
2019-03-22T12:01:22.465Z,253.13
2019-03-22T12:02:22.600Z,253.13
2019-03-22T12:03:20.892Z,247.50
2019-03-22T12:04:20.959Z,247.50
2019-03-22T12:05:21.019Z,247.50
2019-03-22T12:06:21.088Z,247.50
2019-03-22T12:07:21.159Z,247.50
2019-03-22T12:08:21.266Z,247.50
2019-03-22T12:09:22.962Z,241.88
2019-03-22T12:10:21.360Z,241.88
2019-03-22T12:11:21.431Z,241.88
2019-03-22T12:12:21.499Z,241.88
2019-03-22T12:13:21.568Z,241.88
2019-03-22T12:14:21.635Z,241.88
2019-03-22T12:15:21.694Z,241.88
2019-03-22T12:16:21.767Z,241.88
2019-03-22T12:17:21.831Z,241.88
2019-03-22T12:18:21.908Z,241.88
2019-03-22T12:19:21.975Z,247.50
2019-03-22T12:20:22.036Z,241.88
2019-03-22T12:21:22.103Z,247.50
2019-03-22T12:22:22.175Z,236.25
2019-03-22T12:23:22.347Z,236.25
2019-03-22T12:24:22.312Z,230.63
2019-03-22T12:25:22.375Z,236.25
2019-03-22T12:26:22.444Z,225.00
2019-03-22T12:27:22.517Z,236.25
2019-03-22T12:28:22.588Z,236.25
2019-03-22T12:29:22.656Z,236.25
2019-03-22T12:30:22.715Z,230.63
2019-03-22T12:31:22.788Z,241.88
2019-03-22T12:32:31.838Z,236.25
2019-03-22T12:33:22.944Z,241.88
2019-03-22T12:34:22.996Z,241.88
2019-03-22T12:35:23.060Z,241.88
2019-03-22T12:36:23.128Z,241.88
2019-03-22T12:37:23.205Z,241.88
2019-03-22T12:38:23.372Z,241.88
2019-03-22T12:39:23.332Z,241.88
2019-03-22T12:40:23.403Z,241.88
2019-03-22T12:41:23.469Z,241.88
2019-03-22T12:42:23.536Z,241.88
2019-03-22T12:43:23.612Z,241.88
2019-03-22T12:44:23.681Z,241.88
2019-03-22T12:45:23.741Z,241.88
2019-03-22T12:46:23.809Z,241.88
2019-03-22T12:47:23.880Z,241.88
2019-03-22T12:48:23.960Z,241.88
2019-03-22T12:49:24.025Z,241.88
2019-03-22T12:50:24.087Z,241.88
2019-03-22T12:51:24.157Z,241.88